createdAt,value
2019-02-04T00:02:16.313Z,-1.40
2019-02-04T00:04:46.709Z,-1.20
2019-02-04T00:07:17.348Z,-1.30
2019-02-04T00:09:47.928Z,-1.20
2019-02-04T00:12:18.252Z,-1.10
2019-02-04T00:14:48.596Z,-1.00
2019-02-04T00:17:18.985Z,-1.00
2019-02-04T00:19:50.224Z,-0.90
2019-02-04T00:22:20.556Z,-0.80
2019-02-04T00:24:51.132Z,-0.90
2019-02-04T00:27:21.440Z,-1.10
2019-02-04T00:29:51.788Z,-1.30
2019-02-04T00:32:22.140Z,-1.50
2019-02-04T00:34:52.556Z,-1.60
2019-02-04T00:37:22.908Z,-1.70
2019-02-04T00:39:53.367Z,-1.60
2019-02-04T00:42:23.724Z,-1.60
2019-02-04T00:44:54.064Z,-1.60
2019-02-04T00:47:24.828Z,-1.60
2019-02-04T00:49:55.161Z,-1.50
2019-02-04T00:52:25.624Z,-1.60
2019-02-04T00:54:56.092Z,-1.70
2019-02-04T00:57:26.444Z,-1.80
2019-02-04T00:59:56.904Z,-1.80
2019-02-04T01:02:27.256Z,-2.10
2019-02-04T01:04:57.582Z,-2.30
2019-02-04T01:07:28.032Z,-2.50
2019-02-04T01:09:58.733Z,-2.60
2019-02-04T01:12:29.220Z,-2.60
2019-02-04T01:14:59.575Z,-2.80
2019-02-04T01:17:29.920Z,-2.80
2019-02-04T01:20:00.348Z,-2.90
2019-02-04T01:22:30.694Z,-3.00
2019-02-04T01:25:01.249Z,-3.00
2019-02-04T01:27:31.789Z,-3.10
2019-02-04T01:30:02.156Z,-3.20
2019-02-04T01:32:32.584Z,-3.30
2019-02-04T01:35:02.940Z,-3.40
2019-02-04T01:37:33.296Z,-3.30
2019-02-04T01:40:05.168Z,-3.20
2019-02-04T01:42:35.548Z,-3.20
2019-02-04T01:45:06.523Z,-3.30
2019-02-04T01:47:36.864Z,-3.30
2019-02-04T01:50:07.977Z,-3.40
2019-02-04T01:52:38.724Z,-3.50
2019-02-04T01:55:09.903Z,-3.50
2019-02-04T01:57:40.423Z,-3.60
2019-02-04T02:00:14.765Z,-3.60
2019-02-04T02:02:45.084Z,-3.60
2019-02-04T02:05:16.144Z,-3.70
2019-02-04T02:07:46.644Z,-3.50
2019-02-04T02:10:19.354Z,-3.50
2019-02-04T02:12:50.292Z,-3.40
2019-02-04T02:15:20.808Z,-3.40
2019-02-04T02:17:51.448Z,-3.40
2019-02-04T02:20:27.183Z,-3.50
2019-02-04T02:22:57.540Z,-3.40
2019-02-04T02:25:28.035Z,-3.30
2019-02-04T02:27:58.411Z,-3.40
2019-02-04T02:30:33.161Z,-3.50
2019-02-04T02:33:03.494Z,-3.60
2019-02-04T02:35:33.896Z,-3.80
2019-02-04T02:38:04.258Z,-3.80
2019-02-04T02:40:35.417Z,-3.90
2019-02-04T02:43:06.044Z,-4.00
2019-02-04T02:45:36.492Z,-4.00
2019-02-04T02:48:06.911Z,-4.20
2019-02-04T02:50:37.288Z,-4.20
2019-02-04T02:53:07.628Z,-4.30
2019-02-04T02:55:38.585Z,-4.30
2019-02-04T02:58:08.937Z,-4.30
2019-02-04T03:00:39.441Z,-4.30
2019-02-04T03:03:09.838Z,-4.40
2019-02-04T03:05:40.210Z,-4.40
2019-02-04T03:08:10.560Z,-4.40
2019-02-04T03:10:41.216Z,-4.40
2019-02-04T03:13:11.613Z,-4.40
2019-02-04T03:15:41.992Z,-4.30
2019-02-04T03:18:12.396Z,-4.30
2019-02-04T03:20:42.744Z,-4.30
2019-02-04T03:23:13.095Z,-4.30
2019-02-04T03:25:44.532Z,-4.10
2019-02-04T03:28:14.873Z,-3.90
2019-02-04T03:30:45.454Z,-3.70
2019-02-04T03:33:15.861Z,-3.50
2019-02-04T03:35:46.541Z,-3.40
2019-02-04T03:38:16.906Z,-3.10
2019-02-04T03:40:47.500Z,-3.00
2019-02-04T03:43:17.968Z,-2.90
2019-02-04T03:45:48.385Z,-2.90
2019-02-04T03:48:19.338Z,-2.80
2019-02-04T03:50:49.700Z,-3.00
2019-02-04T03:53:22.449Z,-3.10
2019-02-04T03:55:53.064Z,-3.10
2019-02-04T03:58:23.455Z,-3.10
2019-02-04T04:00:54.200Z,-3.00
2019-02-04T04:03:24.624Z,-2.80
2019-02-04T04:05:55.934Z,-2.60
2019-02-04T04:08:26.749Z,-2.40
2019-02-04T04:10:57.498Z,-2.40
2019-02-04T04:13:28.244Z,-2.40
2019-02-04T04:15:58.644Z,-2.50
2019-02-04T04:18:28.978Z,-2.60
2019-02-04T04:20:59.343Z,-2.80
2019-02-04T04:23:29.832Z,-2.80
2019-02-04T04:26:00.408Z,-2.70
2019-02-04T04:28:30.790Z,-2.70
2019-02-04T04:31:01.192Z,-2.70
2019-02-04T04:33:31.566Z,-2.60
2019-02-04T04:36:01.917Z,-2.40
2019-02-04T04:38:32.256Z,-2.20
2019-02-04T04:41:02.824Z,-2.00
2019-02-04T04:43:33.212Z,-1.90
2019-02-04T04:46:03.604Z,-1.80
2019-02-04T04:48:33.968Z,-1.70
2019-02-04T04:51:04.428Z,-1.60
2019-02-04T04:53:35.100Z,-1.50
2019-02-04T04:56:05.833Z,-1.50
2019-02-04T04:58:36.164Z,-1.30
2019-02-04T05:01:06.532Z,-1.20
2019-02-04T05:03:36.864Z,-1.20
2019-02-04T05:06:07.300Z,-1.20
2019-02-04T05:08:37.644Z,-1.20
2019-02-04T05:11:08.348Z,-1.10
2019-02-04T05:13:38.746Z,-1.00
2019-02-04T05:16:10.049Z,-1.00
2019-02-04T05:18:40.444Z,-0.90
2019-02-04T05:21:10.998Z,-0.70
2019-02-04T05:23:41.440Z,-0.70
2019-02-04T05:26:12.000Z,-0.60
2019-02-04T05:28:42.340Z,-0.60
2019-02-04T05:31:12.796Z,-0.50
2019-02-04T05:33:43.240Z,-0.50
2019-02-04T05:36:13.557Z,-0.40
2019-02-04T05:38:43.988Z,-0.40
2019-02-04T05:41:14.476Z,-0.20
2019-02-04T05:43:44.860Z,-0.10
2019-02-04T05:46:15.476Z,0.10
2019-02-04T05:48:49.380Z,0.10
2019-02-04T05:51:17.879Z,0.10
2019-02-04T05:53:48.225Z,0.20
2019-02-04T05:56:18.776Z,0.30
2019-02-04T05:58:49.425Z,0.40
2019-02-04T06:01:19.854Z,0.50
2019-02-04T06:03:50.216Z,0.60
2019-02-04T06:06:20.608Z,0.70
2019-02-04T06:08:50.940Z,0.80
2019-02-04T06:11:21.665Z,0.80
2019-02-04T06:13:52.098Z,0.80
2019-02-04T06:16:22.757Z,0.80
2019-02-04T06:19:00.373Z,0.80
2019-02-04T06:21:25.377Z,0.90
2019-02-04T06:23:55.827Z,0.80
2019-02-04T06:26:26.490Z,0.80
2019-02-04T06:28:56.930Z,0.80
2019-02-04T06:31:27.621Z,0.80
2019-02-04T06:33:58.055Z,0.80
2019-02-04T06:36:28.426Z,0.80
2019-02-04T06:38:58.944Z,0.80
2019-02-04T06:41:29.413Z,0.70
2019-02-04T06:43:59.854Z,0.50
2019-02-04T06:46:30.244Z,0.60
2019-02-04T06:49:11.698Z,0.70
2019-02-04T06:51:33.305Z,0.60
2019-02-04T06:54:03.687Z,0.50
2019-02-04T06:56:36.078Z,0.60
2019-02-04T06:59:09.473Z,0.40
2019-02-04T07:01:40.040Z,0.20
2019-02-04T07:04:10.818Z,0.00
2019-02-04T07:06:42.040Z,-0.10
2019-02-04T07:09:12.820Z,-0.20
2019-02-04T07:11:43.609Z,-0.20
2019-02-04T07:14:14.205Z,-0.30
2019-02-04T07:16:44.828Z,-0.40
2019-02-04T07:19:23.902Z,-0.40
2019-02-04T07:21:47.261Z,-0.50
2019-02-04T07:24:17.835Z,-0.50
2019-02-04T07:26:48.348Z,-0.50
2019-02-04T07:29:18.780Z,-0.60
2019-02-04T07:31:49.396Z,-0.60
2019-02-04T07:34:19.800Z,-0.60
2019-02-04T07:36:51.389Z,-0.30
2019-02-04T07:39:21.720Z,0.00
2019-02-04T07:41:52.560Z,0.00
2019-02-04T07:44:23.246Z,0.10
2019-02-04T07:46:53.712Z,0.30
2019-02-04T07:49:34.782Z,0.50
2019-02-04T07:51:56.323Z,0.70
2019-02-04T07:54:26.761Z,0.90
2019-02-04T07:56:57.804Z,1.10
2019-02-04T07:59:28.546Z,1.30
2019-02-04T08:01:59.086Z,1.40
2019-02-04T08:04:31.717Z,1.50
2019-02-04T08:07:02.148Z,1.60
2019-02-04T08:09:32.522Z,1.60
2019-02-04T08:12:03.225Z,1.70
2019-02-04T08:14:33.594Z,1.70
2019-02-04T08:17:04.380Z,1.80
2019-02-04T08:19:46.176Z,1.80
2019-02-04T08:22:06.812Z,1.90
2019-02-04T08:24:38.271Z,2.00
2019-02-04T08:27:08.873Z,2.10
2019-02-04T08:29:39.405Z,2.20
2019-02-04T08:32:09.792Z,2.30
2019-02-04T08:34:40.216Z,2.50
2019-02-04T08:37:10.953Z,2.50
2019-02-04T08:39:41.645Z,2.70
2019-02-04T08:42:12.061Z,2.80
2019-02-04T08:44:43.427Z,2.90
2019-02-04T08:47:22.673Z,3.00
2019-02-04T08:49:45.919Z,3.00
2019-02-04T08:52:16.360Z,3.10
2019-02-04T08:54:46.780Z,3.10
2019-02-04T08:57:17.383Z,3.00
2019-02-04T08:59:47.854Z,3.10
2019-02-04T09:02:18.480Z,3.00
2019-02-04T09:04:50.146Z,3.10
2019-02-04T09:07:20.829Z,3.30
2019-02-04T09:09:51.186Z,3.30
2019-02-04T09:12:21.832Z,3.30
2019-02-04T09:14:52.273Z,3.40
2019-02-04T09:17:22.640Z,3.30
2019-02-04T09:19:53.198Z,3.50
2019-02-04T09:22:23.768Z,3.50
2019-02-04T09:24:54.204Z,3.70
2019-02-04T09:27:24.805Z,3.60
2019-02-04T09:29:56.797Z,3.60
2019-02-04T09:32:27.550Z,3.50
2019-02-04T09:34:57.968Z,3.60
2019-02-04T09:37:29.400Z,3.70
2019-02-04T09:39:59.804Z,3.80
2019-02-04T09:42:30.271Z,3.80
2019-02-04T09:45:00.652Z,3.90
2019-02-04T09:47:32.053Z,4.00
2019-02-04T09:50:02.520Z,4.00
2019-02-04T09:52:33.020Z,3.90
2019-02-04T09:55:03.551Z,4.20
2019-02-04T09:57:35.313Z,4.20
2019-02-04T10:00:07.102Z,4.30
2019-02-04T10:02:38.060Z,4.10
2019-02-04T10:05:09.592Z,4.10
2019-02-04T10:07:40.411Z,3.90
2019-02-04T10:10:14.386Z,3.80
2019-02-04T10:12:45.021Z,3.80
2019-02-04T10:15:18.503Z,3.90
2019-02-04T10:17:51.676Z,3.80
2019-02-04T10:20:33.051Z,3.80
2019-02-04T10:22:54.554Z,3.70
2019-02-04T10:25:26.908Z,3.70
2019-02-04T10:27:57.388Z,3.60
2019-02-04T10:30:29.980Z,3.40
2019-02-04T10:33:00.464Z,3.50
2019-02-04T10:35:31.397Z,3.50
2019-02-04T10:38:01.851Z,3.40
2019-02-04T10:40:32.402Z,3.40
2019-02-04T10:43:03.136Z,3.40
2019-02-04T10:45:33.725Z,3.40
2019-02-04T10:48:04.434Z,3.40
2019-02-04T10:50:46.110Z,3.10
2019-02-04T10:53:14.852Z,3.20
2019-02-04T10:55:45.456Z,3.10
2019-02-04T10:58:16.157Z,3.00
2019-02-04T11:00:46.858Z,3.10
2019-02-04T11:03:19.952Z,3.00
2019-02-04T11:05:49.656Z,3.00
2019-02-04T11:08:20.118Z,3.00
2019-02-04T11:10:50.770Z,2.90
2019-02-04T11:13:21.599Z,2.90
2019-02-04T11:15:52.053Z,2.90
2019-02-04T11:18:22.594Z,2.80
2019-02-04T11:20:58.049Z,2.70
2019-02-04T11:23:25.153Z,2.70
2019-02-04T11:25:55.797Z,2.60
2019-02-04T11:28:26.453Z,2.60
2019-02-04T11:30:59.446Z,2.60
2019-02-04T11:33:29.973Z,2.50
2019-02-04T11:36:00.665Z,2.40
2019-02-04T11:38:31.197Z,2.50
2019-02-04T11:41:01.715Z,2.40
2019-02-04T11:43:33.747Z,2.40
2019-02-04T11:46:04.359Z,2.30
2019-02-04T11:48:34.880Z,2.30
2019-02-04T11:51:09.847Z,2.20
2019-02-04T11:53:37.764Z,2.20
2019-02-04T11:56:08.273Z,2.20
2019-02-04T11:58:38.976Z,2.10
2019-02-04T12:01:09.726Z,2.10
2019-02-04T12:03:40.748Z,2.10
2019-02-04T12:06:11.591Z,2.10
2019-02-04T12:08:42.256Z,2.00
2019-02-04T12:11:18.305Z,2.00
2019-02-04T12:13:49.314Z,2.00
2019-02-04T12:16:19.825Z,1.90
2019-02-04T12:18:50.233Z,2.00
2019-02-04T12:21:21.794Z,1.90
2019-02-04T12:23:52.448Z,1.90
2019-02-04T12:26:23.516Z,2.00
2019-02-04T12:28:54.192Z,2.00
2019-02-04T12:31:25.767Z,2.00
2019-02-04T12:33:56.372Z,2.00
2019-02-04T12:36:26.830Z,2.00
2019-02-04T12:38:57.197Z,2.00
2019-02-04T12:41:27.659Z,2.00
2019-02-04T12:43:59.279Z,2.00
2019-02-04T12:46:29.856Z,2.00
2019-02-04T12:49:00.327Z,2.00
2019-02-04T12:51:33.838Z,1.90
2019-02-04T12:54:04.085Z,1.80
2019-02-04T12:56:35.448Z,1.80
2019-02-04T12:59:05.956Z,1.80
2019-02-04T13:01:36.656Z,1.90
2019-02-04T13:04:08.709Z,1.90
2019-02-04T13:06:39.092Z,2.00
2019-02-04T13:09:10.517Z,2.00
2019-02-04T13:11:40.942Z,2.00
2019-02-04T13:14:13.953Z,2.00
2019-02-04T13:16:47.105Z,2.10
2019-02-04T13:19:17.517Z,2.00
2019-02-04T13:21:47.836Z,2.10
2019-02-04T13:24:18.318Z,2.10
2019-02-04T13:26:48.741Z,2.10
2019-02-04T13:29:19.557Z,2.20
2019-02-04T13:31:50.210Z,2.20
2019-02-04T13:34:20.668Z,2.20
2019-02-04T13:36:51.123Z,2.30
2019-02-04T13:39:21.690Z,2.30
2019-02-04T13:41:52.813Z,2.30
2019-02-04T13:44:23.324Z,2.40
2019-02-04T13:46:53.652Z,2.40
2019-02-04T13:49:24.321Z,2.50
2019-02-04T13:51:57.987Z,2.50
2019-02-04T13:54:31.562Z,2.50
2019-02-04T13:57:03.734Z,2.60
2019-02-04T13:59:34.264Z,2.60
2019-02-04T14:02:06.058Z,2.60
2019-02-04T14:04:36.650Z,2.70
2019-02-04T14:07:07.048Z,2.70
2019-02-04T14:09:38.274Z,2.70
2019-02-04T14:12:08.684Z,2.70
2019-02-04T14:14:39.622Z,2.80
2019-02-04T14:17:10.362Z,2.80
2019-02-04T14:19:40.723Z,2.80
2019-02-04T14:22:11.159Z,2.80
2019-02-04T14:24:43.261Z,2.80
2019-02-04T14:27:13.920Z,2.90
2019-02-04T14:29:44.435Z,2.90
2019-02-04T14:32:14.843Z,2.90
2019-02-04T14:34:45.209Z,2.90
2019-02-04T14:37:15.857Z,2.90
2019-02-04T14:39:49.349Z,2.90
2019-02-04T14:42:20.196Z,2.90
2019-02-04T14:45:23.977Z,2.90
2019-02-04T14:48:16.517Z,2.90
2019-02-04T14:51:16.386Z,2.80
2019-02-04T14:54:12.492Z,2.80
2019-02-04T14:57:21.702Z,2.90
2019-02-04T15:00:02.285Z,2.80
2019-02-04T15:03:01.410Z,2.80
2019-02-04T15:05:53.117Z,2.80
2019-02-04T15:08:47.476Z,2.80
2019-02-04T15:11:52.206Z,2.70
2019-02-04T15:14:58.234Z,2.70
2019-02-04T15:17:44.653Z,2.80
2019-02-04T15:20:58.478Z,2.70
2019-02-04T15:24:09.475Z,2.80
2019-02-04T15:27:05.030Z,2.80
2019-02-04T15:30:15.799Z,2.70
2019-02-04T15:33:01.489Z,2.70
2019-02-04T15:36:14.382Z,2.70
2019-02-04T15:39:08.725Z,2.70
2019-02-04T15:42:15.931Z,2.70
2019-02-04T15:45:30.090Z,2.70
2019-02-04T15:48:05.338Z,2.70
2019-02-04T15:51:06.253Z,2.70
2019-02-04T15:53:36.915Z,2.70
2019-02-04T15:56:08.690Z,2.60
2019-02-04T15:58:49.365Z,2.60
2019-02-04T16:01:19.727Z,2.60
2019-02-04T16:03:50.178Z,2.60
2019-02-04T16:06:20.506Z,2.50
2019-02-04T16:08:51.210Z,2.50
2019-02-04T16:11:22.068Z,2.50
2019-02-04T16:13:52.960Z,2.50
2019-02-04T16:16:23.455Z,2.50
2019-02-04T16:18:54.659Z,2.40
2019-02-04T16:21:26.665Z,2.40
2019-02-04T16:23:58.046Z,2.40
2019-02-04T16:26:28.494Z,2.40
2019-02-04T16:29:00.659Z,2.40
2019-02-04T16:31:31.538Z,2.30
2019-02-04T16:34:01.924Z,2.30
2019-02-04T16:36:47.184Z,2.30
2019-02-04T16:39:21.771Z,2.20
2019-02-04T16:41:52.677Z,2.30
2019-02-04T16:44:26.824Z,2.20
2019-02-04T16:46:57.783Z,2.20
2019-02-04T16:49:28.280Z,2.20
2019-02-04T16:51:58.796Z,2.10
2019-02-04T16:54:29.365Z,2.10
2019-02-04T16:56:59.841Z,2.10
2019-02-04T16:59:30.389Z,2.00
2019-02-04T17:02:00.816Z,2.00
2019-02-04T17:04:31.205Z,2.00
2019-02-04T17:07:01.835Z,2.00
2019-02-04T17:09:32.321Z,2.00
2019-02-04T17:12:03.352Z,2.00
2019-02-04T17:14:34.112Z,2.00
2019-02-04T17:17:05.020Z,2.00
2019-02-04T17:19:35.433Z,2.00
2019-02-04T17:22:05.876Z,1.90
2019-02-04T17:24:36.548Z,1.90
2019-02-04T17:27:07.177Z,1.90
2019-02-04T17:29:37.644Z,1.90
2019-02-04T17:32:10.792Z,1.90
2019-02-04T17:34:42.284Z,1.90
2019-02-04T17:37:13.025Z,1.90
2019-02-04T17:39:45.955Z,1.90
2019-02-04T17:42:16.320Z,1.80
2019-02-04T17:44:46.768Z,1.80
2019-02-04T17:47:17.412Z,1.80
2019-02-04T17:49:47.756Z,1.80
2019-02-04T17:52:18.320Z,1.70
2019-02-04T17:54:48.924Z,1.70
2019-02-04T17:57:19.356Z,1.80
2019-02-04T17:59:49.862Z,1.70
2019-02-04T18:02:20.564Z,1.60
2019-02-04T18:04:51.178Z,1.70
2019-02-04T18:07:21.684Z,1.70
2019-02-04T18:09:52.153Z,1.70
2019-02-04T18:12:22.698Z,1.70
2019-02-04T18:14:53.085Z,1.70
2019-02-04T18:17:23.915Z,1.60
2019-02-04T18:19:54.371Z,1.60
2019-02-04T18:22:24.940Z,1.60
2019-02-04T18:24:55.286Z,1.60
2019-02-04T18:27:25.736Z,1.60
2019-02-04T18:29:56.253Z,1.60
2019-02-04T18:32:27.136Z,1.60
2019-02-04T18:34:57.634Z,1.60
2019-02-04T18:37:28.490Z,1.50
2019-02-04T18:39:58.938Z,1.50
2019-02-04T18:42:30.968Z,1.40
2019-02-04T18:45:01.996Z,1.40
2019-02-04T18:47:32.776Z,1.40
2019-02-04T18:50:04.107Z,1.40
2019-02-04T18:52:37.052Z,1.30
2019-02-04T18:55:08.372Z,1.30
2019-02-04T18:57:38.985Z,1.30
2019-02-04T19:00:10.608Z,1.30
2019-02-04T19:02:41.256Z,1.30
2019-02-04T19:05:12.416Z,1.30
2019-02-04T19:07:43.028Z,1.30
2019-02-04T19:10:15.103Z,1.20
2019-02-04T19:12:45.660Z,1.30
2019-02-04T19:15:17.983Z,1.30
2019-02-04T19:17:49.208Z,1.30
2019-02-04T19:20:21.354Z,1.30
2019-02-04T19:22:51.741Z,1.30
2019-02-04T19:25:22.216Z,1.40
2019-02-04T19:27:52.814Z,1.50
2019-02-04T19:30:26.290Z,1.50
2019-02-04T19:32:57.160Z,1.50
2019-02-04T19:35:27.536Z,1.60
2019-02-04T19:37:58.114Z,1.60
2019-02-04T19:40:28.646Z,1.60
2019-02-04T19:42:58.988Z,1.60
2019-02-04T19:45:29.668Z,1.60
2019-02-04T19:48:03.123Z,1.60
2019-02-04T19:50:33.977Z,1.60
2019-02-04T19:53:05.644Z,1.60
2019-02-04T19:55:36.123Z,1.50
2019-02-04T19:58:08.304Z,1.50
2019-02-04T20:00:38.680Z,1.60
2019-02-04T20:03:09.335Z,1.60
2019-02-04T20:05:39.714Z,1.60
2019-02-04T20:08:10.068Z,1.50
2019-02-04T20:10:40.632Z,1.60
2019-02-04T20:13:11.617Z,1.60
2019-02-04T20:15:42.136Z,1.60
2019-02-04T20:18:12.649Z,1.50
2019-02-04T20:20:43.196Z,1.60
2019-02-04T20:23:13.757Z,1.50
2019-02-04T20:25:44.270Z,1.50
2019-02-04T20:28:14.708Z,1.60
2019-02-04T20:30:46.541Z,1.60
2019-02-04T20:33:17.287Z,1.70
2019-02-04T20:35:47.770Z,1.60
2019-02-04T20:38:18.259Z,1.70
2019-02-04T20:40:48.874Z,1.70
2019-02-04T20:43:19.184Z,1.70
2019-02-04T20:45:49.841Z,1.70
2019-02-04T20:48:20.536Z,1.70
2019-02-04T20:50:51.107Z,1.70
2019-02-04T20:53:21.634Z,1.80
2019-02-04T20:55:52.081Z,1.70
2019-02-04T20:58:22.536Z,1.70
2019-02-04T21:00:53.164Z,1.80
2019-02-04T21:03:23.628Z,1.80
2019-02-04T21:05:54.072Z,1.80
2019-02-04T21:08:24.805Z,1.70
2019-02-04T21:10:55.198Z,1.70
2019-02-04T21:13:26.688Z,1.80
2019-02-04T21:15:57.480Z,1.80
2019-02-04T21:18:28.072Z,1.80
2019-02-04T21:20:58.844Z,1.90
2019-02-04T21:23:29.328Z,1.90
2019-02-04T21:25:59.881Z,1.90
2019-02-04T21:28:30.548Z,1.90
2019-02-04T21:31:01.726Z,1.90
2019-02-04T21:33:32.297Z,1.90
2019-02-04T21:36:02.833Z,1.80
2019-02-04T21:38:33.428Z,1.80
2019-02-04T21:41:03.900Z,1.80
2019-02-04T21:43:34.324Z,1.80
2019-02-04T21:46:04.913Z,1.90
2019-02-04T21:48:35.837Z,2.00
2019-02-04T21:51:06.242Z,2.10
2019-02-04T21:53:36.652Z,2.20
2019-02-04T21:56:07.189Z,2.20
2019-02-04T21:58:37.603Z,2.20
2019-02-04T22:01:10.188Z,2.30
2019-02-04T22:03:40.672Z,2.30
2019-02-04T22:06:11.481Z,2.30
2019-02-04T22:08:41.889Z,2.40
2019-02-04T22:11:15.469Z,2.40
2019-02-04T22:13:46.047Z,2.40
2019-02-04T22:16:16.531Z,2.50
2019-02-04T22:18:47.310Z,2.50
2019-02-04T22:21:17.896Z,2.50
2019-02-04T22:23:48.343Z,2.50
2019-02-04T22:26:19.057Z,2.50
2019-02-04T22:28:49.505Z,2.50
2019-02-04T22:31:20.163Z,2.60
2019-02-04T22:33:50.860Z,2.50
2019-02-04T22:36:21.305Z,2.50
2019-02-04T22:38:51.815Z,2.60
2019-02-04T22:41:23.444Z,2.60
2019-02-04T22:43:53.986Z,2.60
2019-02-04T22:46:24.439Z,2.60
2019-02-04T22:48:55.125Z,2.60
2019-02-04T22:51:25.594Z,2.60
2019-02-04T22:53:56.121Z,2.60
2019-02-04T22:56:26.940Z,2.60
2019-02-04T22:58:57.443Z,2.70
2019-02-04T23:01:42.516Z,2.70
2019-02-04T23:04:13.509Z,2.70
2019-02-04T23:06:44.308Z,2.70
2019-02-04T23:09:16.376Z,2.70
2019-02-04T23:11:46.957Z,2.70
2019-02-04T23:14:18.510Z,2.70
2019-02-04T23:16:48.976Z,2.70
2019-02-04T23:19:20.002Z,2.80
2019-02-04T23:21:50.564Z,2.70
2019-02-04T23:24:20.937Z,2.80
2019-02-04T23:26:51.348Z,2.80
2019-02-04T23:29:21.856Z,2.80
2019-02-04T23:31:55.984Z,2.80
2019-02-04T23:34:28.492Z,2.80
2019-02-04T23:37:00.662Z,2.90
2019-02-04T23:39:31.350Z,2.90
2019-02-04T23:42:01.854Z,2.90
2019-02-04T23:44:32.633Z,2.90
2019-02-04T23:47:03.101Z,2.90
2019-02-04T23:49:33.746Z,2.90
2019-02-04T23:52:04.553Z,2.90
2019-02-04T23:54:35.085Z,2.90
2019-02-04T23:57:05.782Z,2.90
2019-02-04T23:59:36.226Z,2.90
